Time;durP1;ratioP1;P1;durP2;ratioP2;P2;SDS_P1;SDS_P2;PMS_P1;PMS_P2;Temp;Humidity;BMP_temperature;BMP_pressure;BME280_temperature;BME280_humidity;BME280_pressure;Samples;Min_cycle;Max_cycle;Signal;HPM_P1;HPM_P2
2023/10/25 00:04:35;;;;;;;6.10;5.80;;;12.80;99.90;;;;;;10512550;28;20686;-77
2023/10/25 00:10:00;;;;;;;6.40;6.10;;;12.80;99.90;;;;;;10503933;28;20203;-77
2023/10/25 00:15:22;;;;;;;6.10;5.83;;;12.80;99.90;;;;;;10531167;28;20221;-77
2023/10/25 00:20:46;;;;;;;6.20;5.90;;;12.80;99.90;;;;;;10517308;28;20200;-77
2023/10/25 00:26:08;;;;;;;6.97;6.37;;;12.80;99.90;;;;;;10531463;28;20220;-77
2023/10/25 00:31:33;;;;;;;8.43;7.60;;;12.80;99.90;;;;;;10510004;28;20216;-76
2023/10/25 00:36:56;;;;;;;8.30;7.77;;;12.80;99.90;;;;;;10514303;28;20222;-77
2023/10/25 00:42:19;;;;;;;8.37;7.87;;;12.80;99.90;;;;;;10455741;28;20586;-77
2023/10/25 00:47:44;;;;;;;7.63;7.23;;;12.70;99.90;;;;;;10457240;28;20201;-77
2023/10/25 00:53:07;;;;;;;7.50;6.90;;;12.70;99.90;;;;;;10498109;28;20243;-77
2023/10/25 00:58:31;;;;;;;7.90;7.30;;;12.80;99.90;;;;;;10509324;28;20212;-77
2023/10/25 01:03:54;;;;;;;7.73;7.13;;;12.80;99.90;;;;;;10499411;28;20229;-77
2023/10/25 01:09:18;;;;;;;8.30;7.70;;;12.70;99.90;;;;;;10471047;28;20228;-77
2023/10/25 01:14:40;;;;;;;8.27;7.50;;;12.80;99.90;;;;;;10493182;28;20224;-76
2023/10/25 01:20:02;;;;;;;7.33;7.03;;;12.80;99.90;;;;;;10489403;28;20216;-77
2023/10/25 01:25:26;;;;;;;7.47;7.07;;;12.70;99.90;;;;;;10487866;28;21151;-77
2023/10/25 01:30:48;;;;;;;7.80;7.40;;;12.70;99.90;;;;;;10482934;28;20228;-77
2023/10/25 01:36:10;;;;;;;8.70;8.20;;;12.70;99.90;;;;;;10477540;28;20240;-77
2023/10/25 01:41:34;;;;;;;8.87;8.30;;;12.70;99.90;;;;;;10475597;28;20197;-77
2023/10/25 01:46:56;;;;;;;8.73;8.20;;;12.70;99.90;;;;;;10487198;28;20225;-77
2023/10/25 01:52:19;;;;;;;9.43;8.73;;;12.70;99.90;;;;;;10506575;28;20231;-77
2023/10/25 01:57:46;;;;;;;9.47;8.77;;;12.70;99.90;;;;;;10498801;28;20207;-76
2023/10/25 02:03:08;;;;;;;8.67;8.07;;;12.60;99.90;;;;;;10470066;28;20610;-76
2023/10/25 02:08:30;;;;;;;9.50;8.90;;;12.60;99.90;;;;;;10496264;28;20208;-77
2023/10/25 02:13:54;;;;;;;9.90;9.10;;;12.50;99.90;;;;;;10462981;28;20230;-77
2023/10/25 02:19:16;;;;;;;8.20;7.70;;;12.50;99.90;;;;;;10439057;28;20194;-77
2023/10/25 02:24:39;;;;;;;8.20;7.70;;;12.50;99.90;;;;;;10509715;28;20213;-77
2023/10/25 02:30:02;;;;;;;7.97;7.50;;;12.50;99.90;;;;;;10467940;28;20200;-77
2023/10/25 02:35:25;;;;;;;7.20;6.80;;;12.50;99.90;;;;;;10505110;28;20220;-77
2023/10/25 02:40:47;;;;;;;8.07;7.60;;;12.50;99.90;;;;;;10479975;28;20620;-77
2023/10/25 02:46:12;;;;;;;7.90;7.40;;;12.50;99.90;;;;;;10486200;28;20224;-77
2023/10/25 02:51:34;;;;;;;6.90;6.60;;;12.50;99.90;;;;;;10494052;28;20217;-78
2023/10/25 02:56:58;;;;;;;6.67;6.37;;;12.50;99.90;;;;;;10485131;28;20270;-78
2023/10/25 03:02:22;;;;;;;6.80;6.30;;;12.40;99.90;;;;;;10489758;28;20201;-76
2023/10/25 03:07:44;;;;;;;7.07;6.77;;;12.40;99.90;;;;;;10508394;28;20204;-76
2023/10/25 03:13:06;;;;;;;7.00;6.70;;;12.30;99.90;;;;;;10465470;28;20229;-76
2023/10/25 03:18:30;;;;;;;6.70;6.40;;;12.40;99.90;;;;;;10482343;28;20581;-75
2023/10/25 03:23:53;;;;;;;13.13;11.73;;;12.40;99.90;;;;;;10488346;28;20221;-78
2023/10/25 03:29:16;;;;;;;7.77;7.20;;;12.30;99.90;;;;;;10487006;28;20201;-75
2023/10/25 03:34:40;;;;;;;6.70;6.40;;;12.30;99.90;;;;;;10486747;28;20244;-76
2023/10/25 03:40:03;;;;;;;6.87;6.57;;;12.30;99.90;;;;;;10473237;28;20706;-75
2023/10/25 03:45:26;;;;;;;6.90;6.50;;;12.20;99.90;;;;;;10455415;28;20218;-76
2023/10/25 03:50:49;;;;;;;7.80;7.30;;;12.20;99.90;;;;;;10450585;28;20206;-76
2023/10/25 03:56:11;;;;;;;8.17;7.47;;;12.20;99.90;;;;;;10483518;28;20596;-75
2023/10/25 04:01:34;;;;;;;10.50;9.80;;;12.10;99.90;;;;;;10473003;28;20201;-75
2023/10/25 04:06:57;;;;;;;9.77;9.07;;;12.10;99.90;;;;;;10554364;22;20228;-77
2023/10/25 04:12:20;;;;;;;9.00;8.10;;;12.10;99.90;;;;;;10531751;28;20378;-77
2023/10/25 04:17:42;;;;;;;10.70;9.90;;;12.10;99.90;;;;;;10454144;28;20693;-77
2023/10/25 04:23:05;;;;;;;10.50;9.80;;;12.10;99.90;;;;;;10475899;28;20670;-77
2023/10/25 04:28:27;;;;;;;9.73;9.03;;;12.10;99.90;;;;;;10489388;28;20215;-77
2023/10/25 04:33:50;;;;;;;8.90;8.30;;;12.00;99.90;;;;;;10485288;28;20693;-77
2023/10/25 04:39:13;;;;;;;8.43;7.93;;;12.00;99.90;;;;;;10477998;28;20662;-78
2023/10/25 04:44:35;;;;;;;8.30;7.70;;;12.00;99.90;;;;;;10489503;28;20645;-78
2023/10/25 04:50:01;;;;;;;8.63;8.07;;;11.90;99.90;;;;;;10484347;28;20654;-78
2023/10/25 04:55:26;;;;;;;8.70;8.17;;;11.90;99.90;;;;;;10468576;28;20236;-77
2023/10/25 05:00:48;;;;;;;9.00;8.40;;;11.90;99.90;;;;;;10479953;28;20201;-77
2023/10/25 05:06:11;;;;;;;9.23;8.57;;;11.90;99.90;;;;;;10466033;28;20232;-77
2023/10/25 05:11:38;;;;;;;8.60;8.10;;;11.90;99.90;;;;;;10451983;28;20225;-77
2023/10/25 05:17:01;;;;;;;9.00;8.40;;;11.90;99.90;;;;;;10483411;28;20252;-77
2023/10/25 05:22:26;;;;;;;9.50;8.70;;;11.90;99.90;;;;;;10466999;28;20538;-78
2023/10/25 05:27:50;;;;;;;8.60;8.07;;;11.90;99.90;;;;;;10475877;28;20616;-78
2023/10/25 05:33:14;;;;;;;7.90;7.30;;;11.90;99.90;;;;;;10481296;28;20651;-78
2023/10/25 05:38:38;;;;;;;8.20;7.70;;;11.90;99.90;;;;;;10487777;28;20716;-78
2023/10/25 05:44:07;;;;;;;6.67;6.27;;;11.90;99.90;;;;;;10494380;28;20220;-78
2023/10/25 05:49:29;;;;;;;8.00;7.40;;;11.80;99.90;;;;;;10488272;28;20201;-78
2023/10/25 05:54:52;;;;;;;8.40;7.70;;;11.80;99.90;;;;;;10486327;28;20226;-78
2023/10/25 06:00:17;;;;;;;8.03;7.43;;;11.80;99.90;;;;;;10474565;28;20701;-78
2023/10/25 06:05:40;;;;;;;8.33;7.83;;;11.80;99.90;;;;;;10478924;28;20232;-79
2023/10/25 06:11:03;;;;;;;8.80;8.20;;;11.90;99.90;;;;;;10465994;28;20221;-79
2023/10/25 06:16:27;;;;;;;8.57;7.93;;;11.80;99.90;;;;;;10487852;28;20346;-78
2023/10/25 06:21:49;;;;;;;8.80;8.20;;;11.80;99.90;;;;;;10452862;28;20190;-78
2023/10/25 06:27:11;;;;;;;7.53;7.03;;;11.90;99.90;;;;;;10486561;28;20219;-78
2023/10/25 06:32:35;;;;;;;8.23;7.73;;;12.00;99.90;;;;;;10456620;28;20306;-78
2023/10/25 06:37:59;;;;;;;7.03;6.53;;;12.10;99.90;;;;;;10484285;28;20197;-79
2023/10/25 06:43:22;;;;;;;8.27;7.47;;;12.20;99.90;;;;;;10493935;28;20608;-79
2023/10/25 06:48:46;;;;;;;7.93;7.33;;;12.10;99.90;;;;;;10453339;28;20198;-78
2023/10/25 06:54:09;;;;;;;8.63;7.93;;;12.10;99.90;;;;;;10487780;28;20214;-78
2023/10/25 06:59:32;;;;;;;9.30;8.50;;;12.10;99.90;;;;;;10445622;28;20578;-78
2023/10/25 07:05:02;;;;;;;9.67;8.87;;;12.10;99.90;;;;;;10468239;28;20222;-78
2023/10/25 07:10:25;;;;;;;9.50;8.80;;;12.20;99.90;;;;;;10452204;28;20575;-79
2023/10/25 07:15:48;;;;;;;8.00;7.40;;;12.30;99.90;;;;;;10489460;28;20725;-76
2023/10/25 07:21:12;;;;;;;6.70;6.30;;;12.40;99.90;;;;;;10477350;28;20202;-79
2023/10/25 07:26:34;;;;;;;6.90;6.40;;;12.40;99.90;;;;;;10468632;28;20218;-79
2023/10/25 07:31:56;;;;;;;7.30;6.80;;;12.50;99.90;;;;;;10480938;28;20221;-79
2023/10/25 07:37:20;;;;;;;7.27;6.77;;;12.60;99.90;;;;;;10477597;28;20221;-79
2023/10/25 07:42:42;;;;;;;7.20;6.70;;;12.70;99.90;;;;;;10490138;28;20618;-79
2023/10/25 07:48:04;;;;;;;5.60;5.20;;;12.80;99.90;;;;;;10488282;28;20192;-79
2023/10/25 07:53:29;;;;;;;6.70;6.30;;;13.00;99.90;;;;;;10479747;28;20221;-79
2023/10/25 07:58:51;;;;;;;6.60;6.20;;;13.10;99.90;;;;;;10498814;28;20201;-79
2023/10/25 08:04:14;;;;;;;6.33;5.83;;;13.10;99.90;;;;;;10483045;28;20252;-79
2023/10/25 08:09:40;;;;;;;5.53;5.23;;;13.10;99.90;;;;;;10482297;28;20226;-78
2023/10/25 08:15:02;;;;;;;6.33;5.93;;;13.10;99.90;;;;;;10496178;28;20435;-79
2023/10/25 08:20:25;;;;;;;5.60;5.30;;;13.20;99.90;;;;;;10499639;28;20201;-79
2023/10/25 08:25:49;;;;;;;5.60;5.20;;;13.40;99.90;;;;;;10504513;28;20251;-79
2023/10/25 08:31:12;;;;;;;5.80;5.40;;;13.60;99.90;;;;;;10510058;28;20212;-79
2023/10/25 08:36:36;;;;;;;5.70;5.40;;;13.80;99.90;;;;;;10485380;28;20229;-79
2023/10/25 08:42:01;;;;;;;5.80;5.30;;;14.00;99.90;;;;;;10500237;28;20238;-79
2023/10/25 08:47:24;;;;;;;5.17;4.80;;;14.10;99.90;;;;;;10510095;28;20221;-79
2023/10/25 08:52:48;;;;;;;5.63;5.23;;;14.20;99.90;;;;;;10500067;28;20811;-79
2023/10/25 08:58:13;;;;;;;5.80;5.30;;;14.20;99.90;;;;;;10490881;28;20216;-79
2023/10/25 09:03:40;;;;;;;5.00;4.70;;;14.20;99.90;;;;;;10479919;28;20228;-79
2023/10/25 09:09:05;;;;;;;5.43;5.03;;;14.30;99.90;;;;;;10482236;28;20270;-78
2023/10/25 09:14:45;;;;;;;6.43;5.00;;;14.30;99.90;;;;;;10479514;28;20355;-78
2023/10/25 09:20:08;;;;;;;5.47;5.07;;;14.30;99.90;;;;;;10473631;28;20205;-78
2023/10/25 09:25:31;;;;;;;6.23;5.83;;;14.20;99.90;;;;;;10490816;28;20703;-77
2023/10/25 09:30:55;;;;;;;5.43;4.93;;;14.10;99.90;;;;;;10467657;28;20216;-77
2023/10/25 09:36:19;;;;;;;6.60;6.10;;;14.10;99.90;;;;;;10495608;28;20221;-78
2023/10/25 09:41:43;;;;;;;7.73;7.13;;;14.00;99.90;;;;;;10491299;28;20209;-78
2023/10/25 09:47:10;;;;;;;7.47;6.97;;;13.90;99.90;;;;;;10491374;28;20225;-78
2023/10/25 09:52:39;;;;;;;6.70;6.20;;;13.90;99.90;;;;;;10468125;28;20225;-76
2023/10/25 09:58:03;;;;;;;7.17;6.77;;;13.90;99.90;;;;;;10471970;28;20212;-78
2023/10/25 10:03:37;;;;;;;7.73;7.23;;;13.80;99.90;;;;;;10492778;28;20228;-80
2023/10/25 10:09:10;;;;;;;8.30;7.70;;;13.90;99.90;;;;;;10484007;28;20188;-78
2023/10/25 10:14:35;;;;;;;7.53;6.77;;;14.00;99.90;;;;;;10476550;28;20225;-78
2023/10/25 10:19:58;;;;;;;5.97;5.47;;;14.10;99.90;;;;;;10487522;28;20208;-78
2023/10/25 10:25:43;;;;;;;6.00;5.50;;;14.20;99.90;;;;;;10491401;28;20220;-80
2023/10/25 10:31:06;;;;;;;5.57;5.20;;;14.40;99.90;;;;;;10489520;28;20200;-80
2023/10/25 10:36:30;;;;;;;7.60;5.07;;;14.50;99.90;;;;;;10489555;28;20236;-78
2023/10/25 10:42:00;;;;;;;5.40;5.07;;;14.70;99.90;;;;;;10486202;28;20213;-78
2023/10/25 10:47:32;;;;;;;6.73;5.60;;;14.80;99.90;;;;;;10481904;28;20274;-78
2023/10/25 10:52:55;;;;;;;4.40;4.10;;;15.00;99.90;;;;;;10478010;28;20224;-78
2023/10/25 10:58:18;;;;;;;3.90;3.70;;;15.10;99.90;;;;;;10487482;28;20292;-77
2023/10/25 11:03:41;;;;;;;5.20;3.67;;;15.30;99.90;;;;;;10485549;28;20737;-77
2023/10/25 11:09:08;;;;;;;3.67;3.47;;;15.40;99.90;;;;;;10480097;28;20208;-78
2023/10/25 11:14:38;;;;;;;3.97;3.67;;;15.50;99.90;;;;;;10480638;28;20228;-80
2023/10/25 11:20:01;;;;;;;3.10;2.90;;;15.60;99.90;;;;;;10510778;28;20208;-80
2023/10/25 11:25:29;;;;;;;3.53;3.33;;;15.60;99.90;;;;;;10502828;28;20231;-77
2023/10/25 11:30:52;;;;;;;3.50;3.27;;;15.70;99.90;;;;;;10487423;28;20375;-78
2023/10/25 11:36:15;;;;;;;2.80;2.70;;;15.80;99.90;;;;;;10498457;28;20220;-78
2023/10/25 11:41:39;;;;;;;2.80;2.70;;;15.90;99.90;;;;;;10488013;28;20211;-78
2023/10/25 11:47:02;;;;;;;2.10;2.00;;;16.10;99.90;;;;;;10484793;28;20229;-77
2023/10/25 11:52:25;;;;;;;6.50;2.27;;;16.30;99.90;;;;;;10483536;28;20205;-78
2023/10/25 11:57:49;;;;;;;2.30;2.20;;;16.40;99.90;;;;;;10490993;28;20221;-78
2023/10/25 12:03:11;;;;;;;2.80;1.90;;;16.50;99.90;;;;;;10475227;28;20229;-78
2023/10/25 12:08:34;;;;;;;2.63;2.43;;;16.60;99.90;;;;;;10489182;28;20571;-74
2023/10/25 12:13:57;;;;;;;6.20;5.03;;;16.60;99.90;;;;;;10486309;28;20225;-78
2023/10/25 12:19:19;;;;;;;2.97;2.70;;;16.60;99.90;;;;;;10494272;28;20624;-78
2023/10/25 12:24:43;;;;;;;2.90;2.70;;;16.60;99.90;;;;;;10468368;28;20216;-78
2023/10/25 12:30:08;;;;;;;2.10;2.00;;;16.60;99.90;;;;;;10495822;28;20279;-78
2023/10/25 12:35:31;;;;;;;2.00;1.90;;;16.50;99.90;;;;;;10493926;28;20232;-78
2023/10/25 12:40:53;;;;;;;2.30;1.87;;;16.60;99.90;;;;;;10488889;28;20297;-78
2023/10/25 12:46:16;;;;;;;2.50;2.17;;;16.70;99.90;;;;;;10495653;28;20247;-78
2023/10/25 12:51:39;;;;;;;2.30;2.20;;;16.80;99.90;;;;;;10492531;28;20665;-77
2023/10/25 12:57:01;;;;;;;2.60;2.50;;;16.80;99.90;;;;;;10474381;28;20241;-78
2023/10/25 13:02:25;;;;;;;6.03;3.50;;;16.50;99.90;;;;;;10476938;28;20704;-78
2023/10/25 13:07:47;;;;;;;2.60;2.50;;;16.40;99.90;;;;;;10477567;28;20217;-78
2023/10/25 13:13:09;;;;;;;1.63;1.53;;;16.40;99.90;;;;;;10481454;28;20229;-78
2023/10/25 13:18:33;;;;;;;1.77;1.67;;;16.60;99.90;;;;;;10478860;28;20505;-78
2023/10/25 13:23:55;;;;;;;2.03;1.80;;;16.70;99.90;;;;;;10487072;28;20229;-78
2023/10/25 13:29:17;;;;;;;2.00;1.90;;;16.80;99.90;;;;;;10463319;28;20224;-78
2023/10/25 13:34:42;;;;;;;1.63;1.23;;;16.80;99.90;;;;;;10456126;28;20225;-78
2023/10/25 13:40:05;;;;;;;1.67;1.57;;;16.80;99.90;;;;;;10454374;28;20340;-78
2023/10/25 13:45:28;;;;;;;1.80;1.40;;;16.80;99.90;;;;;;10487147;28;20209;-78
2023/10/25 13:50:51;;;;;;;1.60;1.50;;;16.80;99.90;;;;;;10481628;28;20194;-78
2023/10/25 13:56:15;;;;;;;1.80;1.70;;;16.70;99.90;;;;;;10459382;28;20304;-78
2023/10/25 14:01:38;;;;;;;2.57;2.37;;;16.80;99.90;;;;;;10485463;28;20193;-78
2023/10/25 14:07:01;;;;;;;1.80;1.70;;;16.80;99.90;;;;;;10459903;28;20217;-78
2023/10/25 14:12:23;;;;;;;2.30;2.10;;;16.80;99.90;;;;;;10486546;28;20201;-77
2023/10/25 14:17:46;;;;;;;2.80;2.13;;;16.70;99.90;;;;;;10494572;28;21027;-78
2023/10/25 14:23:09;;;;;;;1.70;1.60;;;16.60;99.90;;;;;;10473491;28;20616;-78
2023/10/25 14:28:31;;;;;;;1.73;1.63;;;16.60;99.90;;;;;;10461132;28;20680;-78
2023/10/25 14:33:54;;;;;;;4.47;2.00;;;16.60;99.90;;;;;;10474545;28;20640;-78
2023/10/25 14:39:17;;;;;;;1.70;1.60;;;16.50;99.90;;;;;;10464738;28;20201;-78
2023/10/25 14:44:40;;;;;;;2.00;1.90;;;16.50;99.90;;;;;;10461678;28;20208;-78
2023/10/25 14:50:03;;;;;;;2.13;2.03;;;16.40;99.90;;;;;;10474499;28;20347;-78
2023/10/25 14:55:27;;;;;;;2.00;1.77;;;16.40;99.90;;;;;;10483756;28;20229;-78
2023/10/25 15:00:49;;;;;;;2.00;1.90;;;16.30;99.90;;;;;;10490731;28;20209;-78
2023/10/25 15:06:13;;;;;;;1.80;1.70;;;16.30;99.90;;;;;;10484482;28;20225;-78
2023/10/25 15:11:36;;;;;;;2.00;1.90;;;16.10;99.90;;;;;;10493162;28;20200;-78
2023/10/25 15:16:58;;;;;;;3.63;1.70;;;16.10;99.90;;;;;;10506651;28;20649;-78
2023/10/25 15:22:20;;;;;;;2.17;2.07;;;16.00;99.90;;;;;;10475830;28;20208;-78
2023/10/25 15:27:48;;;;;;;1.47;1.37;;;16.00;99.90;;;;;;10486451;28;20221;-77
2023/10/25 15:33:13;;;;;;;6.13;5.60;;;15.90;99.90;;;;;;10481302;28;20263;-79
2023/10/25 15:38:36;;;;;;;8.63;8.23;;;15.70;99.90;;;;;;10497357;28;20201;-77
2023/10/25 15:44:01;;;;;;;6.20;6.00;;;15.30;99.90;;;;;;10484992;28;20691;-78
2023/10/25 15:49:23;;;;;;;8.97;8.67;;;14.80;99.90;;;;;;10466321;28;20202;-79
2023/10/25 15:54:45;;;;;;;9.70;9.20;;;14.40;99.90;;;;;;10478723;28;20240;-79
2023/10/25 16:00:10;;;;;;;8.10;7.50;;;14.10;99.90;;;;;;10476841;28;20202;-79
2023/10/25 16:05:33;;;;;;;14.33;13.23;;;14.00;99.90;;;;;;10467929;28;20222;-79
2023/10/25 16:10:56;;;;;;;11.70;11.07;;;13.80;99.90;;;;;;10493910;28;20203;-78
2023/10/25 16:16:19;;;;;;;11.67;11.07;;;13.70;99.90;;;;;;10489567;28;20584;-77
2023/10/25 16:21:42;;;;;;;11.50;10.93;;;13.60;99.90;;;;;;10477194;28;20667;-77
2023/10/25 16:27:05;;;;;;;11.23;10.73;;;13.60;99.90;;;;;;10465212;28;20236;-77
2023/10/25 16:32:28;;;;;;;11.63;11.07;;;13.60;99.90;;;;;;10488892;28;20208;-77
2023/10/25 16:37:51;;;;;;;12.43;11.83;;;13.70;99.90;;;;;;10454428;28;20232;-77
2023/10/25 16:43:13;;;;;;;9.83;9.43;;;13.70;99.90;;;;;;10468310;28;20243;-78
2023/10/25 16:48:40;;;;;;;10.37;9.97;;;13.60;99.90;;;;;;10461007;28;20204;-78
2023/10/25 16:54:02;;;;;;;11.37;10.73;;;13.60;99.90;;;;;;10494943;28;20786;-78
2023/10/25 16:59:24;;;;;;;10.60;10.20;;;13.60;99.90;;;;;;10468824;28;20544;-79
2023/10/25 17:04:48;;;;;;;13.10;12.40;;;13.60;99.90;;;;;;10465744;28;20240;-78
2023/10/25 17:10:10;;;;;;;8.80;8.40;;;13.60;99.90;;;;;;10487525;28;20700;-78
2023/10/25 17:15:32;;;;;;;13.27;12.27;;;13.60;99.90;;;;;;10478315;28;20237;-77
2023/10/25 17:20:57;;;;;;;13.23;12.53;;;13.60;99.90;;;;;;10476581;28;20201;-78
2023/10/25 17:26:19;;;;;;;11.60;11.10;;;13.70;99.90;;;;;;10491147;28;20216;-79
2023/10/25 17:31:42;;;;;;;11.30;10.90;;;13.60;99.90;;;;;;10475870;28;20205;-78
2023/10/25 17:37:05;;;;;;;13.93;13.03;;;13.20;99.90;;;;;;10481788;28;20228;-78
2023/10/25 17:42:28;;;;;;;13.00;12.40;;;12.90;99.90;;;;;;10484526;28;20294;-78
2023/10/25 17:47:51;;;;;;;11.30;10.90;;;12.70;99.90;;;;;;10497399;28;20217;-79
2023/10/25 17:53:14;;;;;;;12.20;11.70;;;12.60;99.90;;;;;;10489814;28;20224;-79
2023/10/25 17:58:36;;;;;;;7.87;7.57;;;12.60;99.90;;;;;;10464656;28;20273;-79
2023/10/25 18:03:59;;;;;;;9.20;8.70;;;12.60;99.90;;;;;;10491671;28;20228;-79
2023/10/25 18:09:22;;;;;;;11.60;11.00;;;12.60;99.90;;;;;;10458366;28;20197;-78
2023/10/25 18:14:44;;;;;;;10.50;9.80;;;12.70;99.90;;;;;;10497765;28;20236;-79
2023/10/25 18:20:08;;;;;;;10.90;10.40;;;12.80;99.90;;;;;;10497664;28;20216;-80
2023/10/25 18:25:31;;;;;;;7.83;7.50;;;12.90;99.90;;;;;;10462231;28;20205;-79
2023/10/25 18:30:54;;;;;;;8.60;8.20;;;13.00;99.90;;;;;;10490997;28;20192;-79
2023/10/25 18:36:16;;;;;;;8.60;8.13;;;13.00;99.90;;;;;;10489251;28;20695;-80
2023/10/25 18:41:40;;;;;;;5.87;5.57;;;13.20;99.90;;;;;;10462465;28;20197;-79
2023/10/25 18:47:03;;;;;;;7.70;7.30;;;13.20;99.90;;;;;;10473151;28;20214;-78
2023/10/25 18:52:25;;;;;;;7.10;6.77;;;13.10;99.90;;;;;;10485186;28;20193;-79
2023/10/25 18:57:49;;;;;;;7.70;7.23;;;13.10;99.90;;;;;;10481956;28;20217;-80
2023/10/25 19:03:12;;;;;;;5.00;4.80;;;13.10;99.90;;;;;;10472211;28;20233;-81
2023/10/25 19:08:35;;;;;;;6.87;6.57;;;13.10;99.90;;;;;;10477914;28;20207;-78
2023/10/25 19:13:58;;;;;;;6.00;5.80;;;13.10;99.90;;;;;;10452626;28;20214;-82
2023/10/25 19:19:21;;;;;;;5.60;5.40;;;13.10;99.90;;;;;;10475588;28;20205;-79
2023/10/25 19:24:43;;;;;;;5.87;5.67;;;13.10;99.90;;;;;;10490203;28;20229;-80
2023/10/25 19:30:09;;;;;;;6.17;5.87;;;13.10;99.90;;;;;;10497664;28;20204;-79
2023/10/25 19:35:31;;;;;;;6.30;5.80;;;13.10;99.90;;;;;;10493310;28;20224;-79
2023/10/25 19:40:53;;;;;;;4.43;4.23;;;13.10;99.90;;;;;;10484388;28;20201;-80
2023/10/25 19:46:17;;;;;;;4.80;4.50;;;13.10;99.90;;;;;;10481362;28;20238;-79
2023/10/25 19:51:41;;;;;;;4.70;4.50;;;13.10;99.90;;;;;;10496572;28;20535;-78
2023/10/25 19:57:03;;;;;;;4.80;4.50;;;13.10;99.90;;;;;;10501153;28;20225;-79
2023/10/25 20:02:29;;;;;;;4.73;4.53;;;13.10;99.90;;;;;;10513221;28;20541;-80
2023/10/25 20:07:51;;;;;;;4.07;3.90;;;13.20;99.90;;;;;;10488845;28;20198;-81
2023/10/25 20:13:13;;;;;;;3.60;3.50;;;13.30;99.90;;;;;;10465069;28;20231;-81
2023/10/25 20:18:37;;;;;;;3.90;3.70;;;13.30;99.90;;;;;;10484904;28;20228;-80
2023/10/25 20:24:00;;;;;;;3.67;3.47;;;13.40;99.90;;;;;;10479305;28;20228;-81
2023/10/25 20:29:23;;;;;;;3.53;3.30;;;13.40;99.90;;;;;;10486349;28;20201;-82
2023/10/25 20:34:47;;;;;;;3.07;2.97;;;13.50;99.90;;;;;;10483490;28;20732;-81
2023/10/25 20:40:10;;;;;;;4.10;3.90;;;13.50;99.90;;;;;;10478955;28;20293;-82
2023/10/25 20:45:32;;;;;;;3.40;3.10;;;13.60;99.90;;;;;;10490353;28;20595;-82
2023/10/25 20:51:00;;;;;;;8.33;2.80;;;13.50;99.90;;;;;;10491554;28;20203;-82
2023/10/25 20:56:22;;;;;;;2.70;2.60;;;13.60;99.90;;;;;;10494292;28;20242;-81
2023/10/25 21:01:44;;;;;;;3.10;2.87;;;13.60;99.90;;;;;;10496219;28;20696;-81
2023/10/25 21:07:08;;;;;;;2.93;2.73;;;13.50;99.90;;;;;;10493549;28;20221;-80
2023/10/25 21:12:30;;;;;;;2.77;2.60;;;13.60;99.90;;;;;;10479498;28;20212;-81
2023/10/25 21:17:52;;;;;;;2.40;2.30;;;13.50;99.90;;;;;;10481892;28;20225;-82
2023/10/25 21:23:16;;;;;;;2.30;2.20;;;13.50;99.90;;;;;;10498571;28;20220;-81
2023/10/25 21:28:39;;;;;;;2.63;2.43;;;13.40;99.90;;;;;;10489842;28;20193;-79
2023/10/25 21:34:01;;;;;;;2.47;2.37;;;13.40;99.90;;;;;;10490342;28;20228;-79
2023/10/25 21:39:24;;;;;;;2.30;2.20;;;13.50;99.90;;;;;;10477850;28;20205;-79
2023/10/25 21:44:47;;;;;;;2.10;2.03;;;13.50;99.90;;;;;;10480879;28;20216;-79
2023/10/25 21:50:10;;;;;;;2.00;1.90;;;13.50;99.90;;;;;;10485680;28;20279;-79
2023/10/25 21:55:38;;;;;;;2.90;2.37;;;13.50;99.90;;;;;;10498769;28;20220;-80
2023/10/25 22:01:00;;;;;;;2.23;2.13;;;13.50;99.90;;;;;;10488048;28;20637;-80
2023/10/25 22:06:23;;;;;;;2.20;2.10;;;13.50;99.90;;;;;;10487143;28;20699;-81
2023/10/25 22:11:47;;;;;;;2.23;2.13;;;13.50;99.90;;;;;;10483555;28;20202;-81
2023/10/25 22:17:09;;;;;;;2.30;2.20;;;13.40;99.90;;;;;;10493443;28;20233;-79
2023/10/25 22:22:31;;;;;;;1.90;1.90;;;13.40;99.90;;;;;;10496029;28;20220;-81
2023/10/25 22:27:55;;;;;;;1.70;1.70;;;13.20;99.90;;;;;;10478664;28;20693;-78
2023/10/25 22:33:17;;;;;;;1.97;1.87;;;13.10;99.90;;;;;;10474486;28;20229;-78
2023/10/25 22:38:39;;;;;;;3.83;2.00;;;13.10;99.90;;;;;;10488122;28;20220;-78
2023/10/25 22:44:03;;;;;;;2.13;2.03;;;13.20;99.90;;;;;;10490122;28;20232;-78
2023/10/25 22:49:25;;;;;;;2.00;1.90;;;13.20;99.90;;;;;;10491163;28;20193;-78
2023/10/25 22:54:48;;;;;;;2.00;1.90;;;13.20;99.90;;;;;;10483220;28;20229;-78
2023/10/25 23:00:13;;;;;;;1.87;1.73;;;13.10;99.90;;;;;;10488686;28;20215;-79
2023/10/25 23:05:35;;;;;;;1.77;1.67;;;13.10;99.90;;;;;;10502531;28;20227;-79
2023/10/25 23:10:57;;;;;;;1.80;1.70;;;13.10;99.90;;;;;;10497722;28;20567;-79
2023/10/25 23:16:21;;;;;;;1.50;1.50;;;13.10;99.90;;;;;;10467961;28;20229;-79
2023/10/25 23:21:43;;;;;;;1.73;1.63;;;13.10;99.90;;;;;;10503531;28;20614;-81
2023/10/25 23:27:05;;;;;;;3.57;2.03;;;13.10;99.90;;;;;;10504914;28;20224;-81
2023/10/25 23:32:29;;;;;;;1.80;1.70;;;13.10;99.90;;;;;;10490193;28;20200;-80
2023/10/25 23:37:51;;;;;;;2.80;2.60;;;13.10;99.90;;;;;;10468816;28;20236;-80
2023/10/25 23:43:13;;;;;;;4.07;2.83;;;13.20;99.90;;;;;;10493008;28;20227;-80
2023/10/25 23:48:37;;;;;;;1.90;1.80;;;13.20;99.90;;;;;;10491615;28;20658;-81
2023/10/25 23:53:59;;;;;;;2.00;1.90;;;13.30;99.90;;;;;;10497934;28;20232;-81
2023/10/25 23:59:21;;;;;;;2.00;1.90;;;13.30;99.90;;;;;;10496336;28;20213;-81
